createdAt,value
2022-12-22T00:02:20.514Z,83.30
2022-12-22T00:05:12.314Z,80.70
2022-12-22T00:07:59.013Z,91.00
2022-12-22T00:10:48.081Z,84.40
2022-12-22T00:13:34.784Z,81.20
2022-12-22T00:16:21.621Z,76.70
2022-12-22T00:19:08.397Z,88.00
2022-12-22T00:21:55.255Z,105.00
2022-12-22T00:24:41.690Z,98.80
2022-12-22T00:27:37.436Z,82.30
2022-12-22T00:30:30.852Z,92.90
2022-12-22T00:33:17.690Z,90.50
2022-12-22T00:36:03.846Z,69.00
2022-12-22T00:38:50.425Z,90.40
2022-12-22T00:41:37.211Z,79.90
2022-12-22T00:44:23.654Z,93.30
2022-12-22T00:47:10.412Z,85.30
2022-12-22T00:49:57.536Z,95.60
2022-12-22T00:52:50.424Z,90.10
2022-12-22T00:55:38.969Z,95.70
2022-12-22T00:58:30.101Z,103.20
2022-12-22T01:01:16.662Z,79.50
2022-12-22T01:04:03.245Z,99.30
2022-12-22T01:06:50.860Z,88.80
2022-12-22T01:09:37.949Z,117.30
2022-12-22T01:12:40.844Z,79.80
2022-12-22T01:15:35.805Z,89.60
2022-12-22T01:18:26.746Z,85.70
2022-12-22T01:21:13.941Z,90.30
2022-12-22T01:24:00.450Z,81.40
2022-12-22T01:26:47.272Z,117.80
2022-12-22T01:29:34.009Z,95.00
2022-12-22T01:32:20.409Z,96.00
2022-12-22T01:35:07.117Z,105.20
2022-12-22T01:37:59.986Z,97.70
2022-12-22T01:40:47.287Z,97.50
2022-12-22T01:43:44.859Z,97.50
2022-12-22T01:46:43.932Z,94.50
2022-12-22T01:49:52.419Z,93.90
2022-12-22T01:52:41.511Z,85.10
2022-12-22T01:55:30.517Z,105.80
2022-12-22T01:58:17.074Z,81.70
2022-12-22T02:01:04.151Z,93.10
2022-12-22T02:03:50.778Z,94.90
2022-12-22T02:06:54.619Z,105.50
2022-12-22T02:09:50.807Z,102.60
2022-12-22T02:12:37.443Z,101.30
2022-12-22T02:15:32.612Z,86.40
2022-12-22T02:18:19.410Z,73.00
2022-12-22T02:21:16.277Z,95.50
2022-12-22T02:24:21.980Z,98.00
2022-12-22T02:27:10.274Z,98.50
2022-12-22T02:30:09.795Z,107.30
2022-12-22T02:33:09.196Z,106.60
2022-12-22T02:35:59.708Z,100.70
2022-12-22T02:38:54.703Z,98.10
2022-12-22T02:41:53.767Z,117.00
2022-12-22T02:44:50.391Z,96.80
2022-12-22T02:47:49.353Z,82.90
2022-12-22T02:50:46.308Z,85.80
2022-12-22T02:53:33.333Z,106.40
2022-12-22T02:56:21.611Z,106.80
2022-12-22T02:59:08.768Z,97.00
2022-12-22T03:01:59.570Z,102.00
2022-12-22T03:04:46.432Z,89.20
2022-12-22T03:07:32.798Z,83.70
2022-12-22T03:10:19.458Z,107.90
2022-12-22T03:13:05.982Z,106.00
2022-12-22T03:15:56.649Z,83.40
2022-12-22T03:18:43.483Z,108.80
2022-12-22T03:21:30.465Z,109.00
2022-12-22T03:24:17.011Z,93.80
2022-12-22T03:26:44.671Z,99.80
2022-12-22T03:29:12.453Z,63.90
2022-12-22T03:31:40.281Z,92.90
2022-12-22T03:34:08.078Z,83.90
2022-12-22T03:36:35.755Z,97.60
2022-12-22T03:39:03.579Z,96.00
2022-12-22T03:41:51.902Z,94.80
2022-12-22T03:44:38.510Z,94.40
2022-12-22T03:47:06.330Z,97.40
2022-12-22T03:49:34.310Z,112.50
2022-12-22T03:52:02.018Z,73.10
2022-12-22T03:54:29.822Z,95.20
2022-12-22T03:56:57.539Z,93.70
2022-12-22T03:59:25.310Z,84.50
2022-12-22T04:01:53.964Z,108.80
2022-12-22T04:04:23.661Z,81.20
2022-12-22T04:06:51.722Z,99.70
2022-12-22T04:09:19.606Z,96.40
2022-12-22T04:12:10.119Z,95.80
2022-12-22T04:14:44.424Z,103.50
2022-12-22T04:17:12.444Z,92.20
2022-12-22T04:19:40.131Z,101.60
2022-12-22T04:22:07.846Z,104.60
2022-12-22T04:24:35.561Z,104.50
2022-12-22T04:27:03.339Z,95.40
2022-12-22T04:29:31.120Z,112.50
2022-12-22T04:31:58.865Z,104.00
2022-12-22T04:34:26.809Z,101.00
2022-12-22T04:36:54.419Z,73.90
2022-12-22T04:39:22.150Z,107.20
2022-12-22T04:41:49.800Z,97.70
2022-12-22T04:44:17.524Z,98.90
2022-12-22T04:46:46.503Z,110.50
2022-12-22T04:49:14.240Z,95.20
2022-12-22T04:51:41.910Z,113.30
2022-12-22T04:54:09.664Z,94.80
2022-12-22T04:56:37.344Z,110.00
2022-12-22T04:59:04.998Z,89.20
2022-12-22T05:01:32.886Z,102.90
2022-12-22T05:04:00.803Z,95.90
2022-12-22T05:06:28.543Z,109.50
2022-12-22T05:08:56.277Z,95.80
2022-12-22T05:11:23.985Z,98.90
2022-12-22T05:13:51.637Z,127.40
2022-12-22T05:16:19.458Z,100.70
2022-12-22T05:18:47.309Z,103.50
2022-12-22T05:21:26.767Z,119.90
2022-12-22T05:23:55.339Z,114.90
2022-12-22T05:26:22.985Z,105.80
2022-12-22T05:28:50.872Z,110.10
2022-12-22T05:31:22.850Z,101.70
2022-12-22T05:33:57.768Z,107.10
2022-12-22T05:36:26.134Z,92.60
2022-12-22T05:38:53.915Z,112.70
2022-12-22T05:41:21.679Z,106.20
2022-12-22T05:43:49.461Z,107.60
2022-12-22T05:46:17.199Z,113.80
2022-12-22T05:48:45.046Z,107.70
2022-12-22T05:51:12.764Z,140.80
2022-12-22T05:53:40.847Z,107.60
2022-12-22T05:56:08.550Z,103.50
2022-12-22T05:58:37.916Z,113.50
2022-12-22T06:01:05.843Z,116.50
2022-12-22T06:03:33.729Z,103.90
2022-12-22T06:06:04.165Z,96.90
2022-12-22T06:08:34.313Z,99.30
2022-12-22T06:11:02.057Z,109.50
2022-12-22T06:13:29.804Z,109.50
2022-12-22T06:15:57.613Z,93.80
2022-12-22T06:18:25.374Z,112.70
2022-12-22T06:20:53.536Z,123.30
2022-12-22T06:23:21.911Z,119.70
2022-12-22T06:26:00.298Z,101.20
2022-12-22T06:28:34.215Z,113.30
2022-12-22T06:31:02.277Z,115.60
2022-12-22T06:33:30.180Z,126.60
2022-12-22T06:35:59.290Z,95.70
2022-12-22T06:38:27.941Z,110.90
2022-12-22T06:40:55.744Z,85.60
2022-12-22T06:43:23.549Z,113.20
2022-12-22T06:45:51.176Z,116.20
2022-12-22T06:48:19.008Z,132.60
2022-12-22T06:50:46.873Z,103.10
2022-12-22T06:53:14.768Z,86.80
2022-12-22T06:55:42.703Z,81.00
2022-12-22T06:58:10.470Z,98.80
2022-12-22T07:00:38.608Z,74.90
2022-12-22T07:03:06.549Z,100.50
2022-12-22T07:05:34.627Z,94.50
2022-12-22T07:08:08.140Z,107.50
2022-12-22T07:10:56.107Z,84.00
2022-12-22T07:13:28.546Z,102.00
2022-12-22T07:16:00.663Z,108.10
2022-12-22T07:18:33.320Z,92.60
2022-12-22T07:21:01.819Z,98.50
2022-12-22T07:23:29.963Z,93.00
2022-12-22T07:25:57.767Z,93.90
2022-12-22T07:28:25.613Z,116.50
2022-12-22T07:30:54.222Z,93.40
2022-12-22T07:33:22.050Z,102.60
2022-12-22T07:36:00.167Z,93.50
2022-12-22T07:38:28.307Z,113.60
2022-12-22T07:41:04.617Z,103.00
2022-12-22T07:43:33.221Z,97.50
2022-12-22T07:46:01.473Z,102.10
2022-12-22T07:48:47.956Z,88.70
2022-12-22T07:51:15.668Z,96.30
2022-12-22T07:53:43.293Z,72.70
2022-12-22T07:56:11.393Z,92.90
2022-12-22T07:58:39.139Z,114.10
2022-12-22T08:01:07.105Z,97.60
2022-12-22T08:03:35.045Z,90.50
2022-12-22T08:06:04.086Z,79.50
2022-12-22T08:08:33.060Z,125.60
2022-12-22T08:11:05.014Z,100.90
2022-12-22T08:13:35.052Z,97.40
2022-12-22T08:16:10.857Z,97.80
2022-12-22T08:18:39.865Z,89.90
2022-12-22T08:21:08.528Z,111.50
2022-12-22T08:23:36.367Z,94.40
2022-12-22T08:26:29.993Z,103.80
2022-12-22T08:29:10.452Z,91.50
2022-12-22T08:31:44.921Z,92.90
2022-12-22T08:34:16.776Z,90.00
2022-12-22T08:36:47.365Z,80.40
2022-12-22T08:39:16.396Z,89.50
2022-12-22T08:41:54.566Z,86.70
2022-12-22T08:44:23.995Z,97.70
2022-12-22T08:46:52.761Z,101.40
2022-12-22T08:49:20.779Z,87.20
2022-12-22T08:51:48.754Z,67.50
2022-12-22T08:54:16.555Z,91.70
2022-12-22T08:56:45.521Z,80.40
2022-12-22T08:59:13.742Z,68.50
2022-12-22T09:01:47.863Z,68.20
2022-12-22T09:04:17.572Z,86.70
2022-12-22T09:06:46.173Z,76.60
2022-12-22T09:09:15.204Z,84.20
2022-12-22T09:11:43.794Z,77.60
2022-12-22T09:14:12.829Z,69.60
2022-12-22T09:16:41.932Z,80.10
2022-12-22T09:19:09.788Z,72.80
2022-12-22T09:21:38.243Z,83.30
2022-12-22T09:24:07.920Z,87.40
2022-12-22T09:26:35.818Z,76.50
2022-12-22T09:29:04.379Z,77.70
2022-12-22T09:31:32.301Z,70.90
2022-12-22T09:34:00.381Z,69.50
2022-12-22T09:36:29.701Z,68.70
2022-12-22T09:38:57.818Z,56.80
2022-12-22T09:41:34.993Z,74.20
2022-12-22T09:44:05.078Z,78.30
2022-12-22T09:46:39.145Z,66.10
2022-12-22T09:49:07.655Z,69.90
2022-12-22T09:51:40.569Z,60.30
2022-12-22T09:54:09.625Z,57.90
2022-12-22T09:56:37.388Z,60.70
2022-12-22T09:59:15.756Z,57.30
2022-12-22T10:02:04.011Z,60.80
2022-12-22T10:04:49.233Z,61.60
2022-12-22T10:07:32.051Z,55.10
2022-12-22T10:10:25.641Z,59.00
2022-12-22T10:12:55.555Z,45.70
2022-12-22T10:15:24.487Z,48.60
2022-12-22T10:17:53.649Z,52.40
2022-12-22T10:20:21.565Z,43.50
2022-12-22T10:22:49.326Z,50.70
2022-12-22T10:28:51.860Z,52.90
2022-12-22T10:31:30.070Z,67.50
2022-12-22T10:34:20.798Z,51.80
2022-12-22T10:36:49.749Z,61.00
2022-12-22T10:39:22.515Z,56.90
2022-12-22T10:41:51.827Z,53.80
2022-12-22T10:44:22.488Z,44.50
2022-12-22T10:46:54.419Z,36.20
2022-12-22T10:49:30.875Z,41.00
2022-12-22T10:52:11.164Z,32.40
2022-12-22T10:54:42.659Z,44.40
2022-12-22T10:57:13.684Z,43.60
2022-12-22T10:59:58.083Z,36.10
2022-12-22T11:05:01.560Z,30.10
2022-12-22T11:07:36.329Z,26.50
2022-12-22T11:10:12.623Z,28.30
2022-12-22T11:12:46.119Z,28.60
2022-12-22T11:15:24.600Z,27.30
2022-12-22T11:20:26.756Z,29.40
2022-12-22T11:23:03.145Z,30.20
2022-12-22T11:25:40.343Z,34.10
2022-12-22T11:28:17.775Z,34.70
2022-12-22T11:30:52.288Z,26.00
2022-12-22T11:33:21.176Z,33.90
2022-12-22T11:36:04.836Z,26.80
2022-12-22T11:38:32.902Z,34.50
2022-12-22T11:41:04.366Z,35.40
2022-12-22T11:43:35.226Z,32.50
2022-12-22T11:46:06.019Z,39.20
2022-12-22T11:48:43.064Z,33.40
2022-12-22T11:51:18.660Z,52.90
2022-12-22T11:54:10.403Z,38.40
2022-12-22T11:56:47.582Z,35.90
2022-12-22T11:59:34.496Z,35.40
2022-12-22T12:02:12.262Z,39.30
2022-12-22T12:04:43.135Z,35.10
2022-12-22T12:07:30.135Z,34.60
2022-12-22T12:10:15.303Z,37.30
2022-12-22T12:13:02.108Z,32.10
2022-12-22T12:15:30.577Z,36.80
2022-12-22T12:18:07.996Z,31.60
2022-12-22T12:20:41.862Z,32.40
2022-12-22T12:23:19.967Z,40.50
2022-12-22T12:25:47.829Z,47.30
2022-12-22T12:28:15.675Z,47.60
2022-12-22T12:30:54.965Z,35.00
2022-12-22T12:33:32.060Z,36.20
2022-12-22T12:36:05.443Z,35.50
2022-12-22T12:41:30.334Z,45.50
2022-12-22T12:43:58.738Z,38.60
2022-12-22T12:46:42.533Z,35.00
2022-12-22T12:49:29.448Z,39.10
2022-12-22T12:51:58.558Z,38.80
2022-12-22T12:54:30.395Z,38.20
2022-12-22T12:57:07.366Z,50.10
2022-12-22T12:59:41.696Z,40.30
2022-12-22T13:02:29.103Z,34.70
2022-12-22T13:05:01.510Z,42.60
2022-12-22T13:07:49.046Z,38.70
2022-12-22T13:10:21.853Z,45.00
2022-12-22T13:12:52.039Z,44.10
2022-12-22T13:15:40.424Z,39.80
2022-12-22T13:18:28.371Z,39.10
2022-12-22T13:24:26.811Z,45.00
2022-12-22T13:26:56.062Z,51.10
2022-12-22T13:29:31.342Z,46.90
2022-12-22T13:32:01.599Z,45.90
2022-12-22T13:35:29.086Z,46.20
2022-12-22T13:37:41.751Z,42.10
2022-12-22T13:40:13.820Z,38.70
2022-12-22T13:42:43.232Z,45.50
2022-12-22T13:45:23.635Z,48.00
2022-12-22T13:48:01.086Z,42.50
2022-12-22T13:51:03.752Z,37.60
2022-12-22T13:54:10.981Z,40.40
2022-12-22T13:57:10.681Z,42.60
2022-12-22T13:59:40.901Z,38.30
2022-12-22T14:02:09.201Z,39.80
2022-12-22T14:04:38.688Z,38.50
2022-12-22T14:07:12.797Z,40.50
2022-12-22T14:12:33.132Z,48.60
2022-12-22T14:15:08.840Z,41.60
2022-12-22T14:17:52.273Z,39.00
2022-12-22T14:20:24.881Z,58.90
2022-12-22T14:22:55.525Z,52.30
2022-12-22T14:25:25.268Z,41.60
2022-12-22T14:27:56.661Z,46.20
2022-12-22T14:30:26.463Z,38.90
2022-12-22T14:32:56.020Z,52.20
2022-12-22T14:35:26.304Z,50.20
